sensor_id;sensor_type;location;lat;lon;timestamp;pressure;altitude;pressure_sealevel;temperature;humidity
58662;BME280;44432;49.786;22.760;2023-02-18T00:01:37;98751.54;;;6.11;88.27
58662;BME280;44432;49.786;22.760;2023-02-18T00:04:09;98732.11;;;6.12;88.43
58662;BME280;44432;49.786;22.760;2023-02-18T00:06:40;98724.04;;;6.11;88.38
58662;BME280;44432;49.786;22.760;2023-02-18T00:09:11;98728.61;;;6.12;88.46
58662;BME280;44432;49.786;22.760;2023-02-18T00:11:42;98726.98;;;6.11;88.37
58662;BME280;44432;49.786;22.760;2023-02-18T00:14:14;98736.25;;;6.10;88.32
58662;BME280;44432;49.786;22.760;2023-02-18T00:16:46;98727.06;;;6.09;88.40
58662;BME280;44432;49.786;22.760;2023-02-18T00:19:18;98721.79;;;6.10;88.50
58662;BME280;44432;49.786;22.760;2023-02-18T00:21:49;98727.30;;;6.09;88.76
58662;BME280;44432;49.786;22.760;2023-02-18T00:24:20;98725.49;;;6.11;88.86
58662;BME280;44432;49.786;22.760;2023-02-18T00:26:52;98730.42;;;6.13;88.74
58662;BME280;44432;49.786;22.760;2023-02-18T00:29:23;98735.64;;;6.17;88.82
58662;BME280;44432;49.786;22.760;2023-02-18T00:31:54;98739.77;;;6.22;88.93
58662;BME280;44432;49.786;22.760;2023-02-18T00:34:25;98742.13;;;6.26;89.00
58662;BME280;44432;49.786;22.760;2023-02-18T00:36:55;98740.64;;;6.31;88.78
58662;BME280;44432;49.786;22.760;2023-02-18T00:39:26;98739.65;;;6.36;88.66
58662;BME280;44432;49.786;22.760;2023-02-18T00:41:57;98744.70;;;6.39;88.48
58662;BME280;44432;49.786;22.760;2023-02-18T00:44:27;98744.10;;;6.41;88.37
58662;BME280;44432;49.786;22.760;2023-02-18T00:46:58;98741.24;;;6.43;88.54
58662;BME280;44432;49.786;22.760;2023-02-18T00:49:29;98726.30;;;6.40;88.29
58662;BME280;44432;49.786;22.760;2023-02-18T00:51:59;98727.89;;;6.44;88.37
58662;BME280;44432;49.786;22.760;2023-02-18T00:54:30;98720.77;;;6.46;88.25
58662;BME280;44432;49.786;22.760;2023-02-18T00:57:01;98719.66;;;6.46;88.22
58662;BME280;44432;49.786;22.760;2023-02-18T00:59:31;98718.69;;;6.48;88.72
58662;BME280;44432;49.786;22.760;2023-02-18T01:02:02;98719.91;;;6.49;88.26
58662;BME280;44432;49.786;22.760;2023-02-18T01:04:32;98723.83;;;6.53;88.43
58662;BME280;44432;49.786;22.760;2023-02-18T01:07:03;98717.98;;;6.55;88.28
58662;BME280;44432;49.786;22.760;2023-02-18T01:09:34;98712.83;;;6.57;88.31
58662;BME280;44432;49.786;22.760;2023-02-18T01:12:05;98710.92;;;6.59;88.78
58662;BME280;44432;49.786;22.760;2023-02-18T01:14:36;98695.11;;;6.61;88.42
58662;BME280;44432;49.786;22.760;2023-02-18T01:17:06;98666.54;;;6.62;88.38
58662;BME280;44432;49.786;22.760;2023-02-18T01:19:37;98672.75;;;6.64;88.51
58662;BME280;44432;49.786;22.760;2023-02-18T01:22:08;98664.73;;;6.65;88.53
58662;BME280;44432;49.786;22.760;2023-02-18T01:24:39;98662.55;;;6.68;88.46
58662;BME280;44432;49.786;22.760;2023-02-18T01:27:10;98664.23;;;6.70;88.32
58662;BME280;44432;49.786;22.760;2023-02-18T01:29:40;98654.99;;;6.72;88.45
58662;BME280;44432;49.786;22.760;2023-02-18T01:32:11;98646.29;;;6.72;88.21
58662;BME280;44432;49.786;22.760;2023-02-18T01:34:42;98638.02;;;6.74;88.36
58662;BME280;44432;49.786;22.760;2023-02-18T01:37:12;98647.89;;;6.76;88.25
58662;BME280;44432;49.786;22.760;2023-02-18T01:39:43;98650.52;;;6.78;88.40
58662;BME280;44432;49.786;22.760;2023-02-18T01:42:19;98654.91;;;6.79;88.41
58662;BME280;44432;49.786;22.760;2023-02-18T01:44:50;98656.89;;;6.80;88.07
58662;BME280;44432;49.786;22.760;2023-02-18T01:47:21;98652.40;;;6.82;88.34
58662;BME280;44432;49.786;22.760;2023-02-18T01:49:53;98656.88;;;6.84;88.56
58662;BME280;44432;49.786;22.760;2023-02-18T01:52:26;98660.23;;;6.87;88.36
58662;BME280;44432;49.786;22.760;2023-02-18T01:55:00;98663.39;;;6.88;88.34
58662;BME280;44432;49.786;22.760;2023-02-18T01:57:34;98664.91;;;6.94;88.57
58662;BME280;44432;49.786;22.760;2023-02-18T02:00:08;98665.23;;;7.02;88.99
58662;BME280;44432;49.786;22.760;2023-02-18T02:02:43;98671.72;;;7.06;88.30
58662;BME280;44432;49.786;22.760;2023-02-18T02:05:15;98658.79;;;7.08;88.43
58662;BME280;44432;49.786;22.760;2023-02-18T02:07:48;98652.13;;;7.11;88.02
58662;BME280;44432;49.786;22.760;2023-02-18T02:10:21;98644.48;;;7.11;88.08
58662;BME280;44432;49.786;22.760;2023-02-18T02:12:58;98641.98;;;7.12;87.93
58662;BME280;44432;49.786;22.760;2023-02-18T02:15:36;98643.24;;;7.10;87.96
58662;BME280;44432;49.786;22.760;2023-02-18T02:18:25;98640.38;;;7.09;87.94
58662;BME280;44432;49.786;22.760;2023-02-18T02:21:27;98645.95;;;7.11;88.17
58662;BME280;44432;49.786;22.760;2023-02-18T02:27:21;98647.91;;;7.13;87.88
58662;BME280;44432;49.786;22.760;2023-02-18T02:30:27;98644.16;;;7.17;87.72
58662;BME280;44432;49.786;22.760;2023-02-18T02:36:22;98643.02;;;7.26;87.74
58662;BME280;44432;49.786;22.760;2023-02-18T02:38:58;98640.94;;;7.30;87.69
58662;BME280;44432;49.786;22.760;2023-02-18T02:41:43;98644.16;;;7.32;87.38
58662;BME280;44432;49.786;22.760;2023-02-18T02:44:21;98642.09;;;7.34;87.21
58662;BME280;44432;49.786;22.760;2023-02-18T02:46:59;98644.63;;;7.39;87.21
58662;BME280;44432;49.786;22.760;2023-02-18T02:49:42;98638.04;;;7.42;87.35
58662;BME280;44432;49.786;22.760;2023-02-18T02:52:19;98640.89;;;7.47;87.16
58662;BME280;44432;49.786;22.760;2023-02-18T02:54:53;98639.21;;;7.50;86.89
58662;BME280;44432;49.786;22.760;2023-02-18T02:57:46;98638.55;;;7.55;86.42
58662;BME280;44432;49.786;22.760;2023-02-18T03:00:20;98638.58;;;7.59;86.52
58662;BME280;44432;49.786;22.760;2023-02-18T03:03:18;98642.56;;;7.61;86.16
58662;BME280;44432;49.786;22.760;2023-02-18T03:06:18;98646.95;;;7.65;85.50
58662;BME280;44432;49.786;22.760;2023-02-18T03:08:59;98654.11;;;7.72;85.13
58662;BME280;44432;49.786;22.760;2023-02-18T03:11:41;98655.59;;;7.78;84.54
58662;BME280;44432;49.786;22.760;2023-02-18T03:14:19;98655.24;;;7.83;84.20
58662;BME280;44432;49.786;22.760;2023-02-18T03:16:59;98662.98;;;7.86;83.96
58662;BME280;44432;49.786;22.760;2023-02-18T03:19:34;98668.88;;;7.86;83.67
58662;BME280;44432;49.786;22.760;2023-02-18T03:22:09;98660.71;;;7.87;83.57
58662;BME280;44432;49.786;22.760;2023-02-18T03:24:43;98671.16;;;7.87;83.04
58662;BME280;44432;49.786;22.760;2023-02-18T03:27:17;98680.53;;;7.86;82.96
58662;BME280;44432;49.786;22.760;2023-02-18T03:29:54;98686.61;;;7.84;82.70
58662;BME280;44432;49.786;22.760;2023-02-18T03:32:27;98690.62;;;7.82;82.46
58662;BME280;44432;49.786;22.760;2023-02-18T03:34:59;98698.64;;;7.79;82.38
58662;BME280;44432;49.786;22.760;2023-02-18T03:37:32;98704.42;;;7.77;82.34
58662;BME280;44432;49.786;22.760;2023-02-18T03:40:06;98708.42;;;7.75;81.65
58662;BME280;44432;49.786;22.760;2023-02-18T03:42:38;98708.03;;;7.76;81.74
58662;BME280;44432;49.786;22.760;2023-02-18T03:45:09;98704.80;;;7.74;81.32
58662;BME280;44432;49.786;22.760;2023-02-18T03:47:40;98715.23;;;7.76;80.99
58662;BME280;44432;49.786;22.760;2023-02-18T03:50:11;98717.98;;;7.75;80.40
58662;BME280;44432;49.786;22.760;2023-02-18T03:52:42;98724.36;;;7.74;80.19
58662;BME280;44432;49.786;22.760;2023-02-18T03:55:13;98726.95;;;7.75;79.12
58662;BME280;44432;49.786;22.760;2023-02-18T03:57:44;98732.29;;;7.75;78.86
58662;BME280;44432;49.786;22.760;2023-02-18T04:00:15;98734.63;;;7.76;77.63
58662;BME280;44432;49.786;22.760;2023-02-18T04:02:46;98731.91;;;7.78;77.40
58662;BME280;44432;49.786;22.760;2023-02-18T04:05:17;98725.41;;;7.76;77.16
58662;BME280;44432;49.786;22.760;2023-02-18T04:07:48;98739.77;;;7.76;76.32
58662;BME280;44432;49.786;22.760;2023-02-18T04:10:19;98743.52;;;7.78;74.45
58662;BME280;44432;49.786;22.760;2023-02-18T04:12:50;98740.16;;;7.78;74.57
58662;BME280;44432;49.786;22.760;2023-02-18T04:15:21;98745.33;;;7.80;73.70
58662;BME280;44432;49.786;22.760;2023-02-18T04:17:52;98746.50;;;7.80;73.39
58662;BME280;44432;49.786;22.760;2023-02-18T04:20:23;98754.83;;;7.81;72.45
58662;BME280;44432;49.786;22.760;2023-02-18T04:22:53;98758.63;;;7.80;72.71
58662;BME280;44432;49.786;22.760;2023-02-18T04:25:24;98765.19;;;7.78;72.41
58662;BME280;44432;49.786;22.760;2023-02-18T04:27:55;98765.23;;;7.75;72.91
58662;BME280;44432;49.786;22.760;2023-02-18T04:30:25;98765.20;;;7.73;70.80
58662;BME280;44432;49.786;22.760;2023-02-18T04:32:56;98765.64;;;7.72;71.39
58662;BME280;44432;49.786;22.760;2023-02-18T04:35:27;98777.45;;;7.69;71.05
58662;BME280;44432;49.786;22.760;2023-02-18T04:37:58;98790.95;;;7.66;69.56
58662;BME280;44432;49.786;22.760;2023-02-18T04:40:29;98786.55;;;7.65;70.41
58662;BME280;44432;49.786;22.760;2023-02-18T04:43:00;98792.10;;;7.61;70.10
58662;BME280;44432;49.786;22.760;2023-02-18T04:45:31;98789.44;;;7.57;69.33
58662;BME280;44432;49.786;22.760;2023-02-18T04:48:02;98803.10;;;7.55;67.66
58662;BME280;44432;49.786;22.760;2023-02-18T04:50:33;98796.64;;;7.55;68.60
58662;BME280;44432;49.786;22.760;2023-02-18T04:53:04;98799.11;;;7.52;68.98
58662;BME280;44432;49.786;22.760;2023-02-18T04:55:35;98799.02;;;7.49;68.13
58662;BME280;44432;49.786;22.760;2023-02-18T04:58:05;98793.77;;;7.47;67.93
58662;BME280;44432;49.786;22.760;2023-02-18T05:00:38;98795.89;;;7.43;67.24
58662;BME280;44432;49.786;22.760;2023-02-18T05:03:09;98795.33;;;7.42;66.97
58662;BME280;44432;49.786;22.760;2023-02-18T05:05:39;98793.83;;;7.40;66.92
58662;BME280;44432;49.786;22.760;2023-02-18T05:08:10;98799.33;;;7.38;67.16
58662;BME280;44432;49.786;22.760;2023-02-18T05:10:41;98794.44;;;7.35;66.56
58662;BME280;44432;49.786;22.760;2023-02-18T05:13:12;98797.66;;;7.33;66.71
58662;BME280;44432;49.786;22.760;2023-02-18T05:15:43;98793.83;;;7.31;67.03
58662;BME280;44432;49.786;22.760;2023-02-18T05:18:13;98796.50;;;7.27;66.50
58662;BME280;44432;49.786;22.760;2023-02-18T05:20:45;98794.02;;;7.26;66.61
58662;BME280;44432;49.786;22.760;2023-02-18T05:23:16;98808.89;;;7.24;66.46
58662;BME280;44432;49.786;22.760;2023-02-18T05:25:48;98804.66;;;7.23;66.09
58662;BME280;44432;49.786;22.760;2023-02-18T05:28:19;98816.20;;;7.22;65.60
58662;BME280;44432;49.786;22.760;2023-02-18T05:30:49;98816.08;;;7.21;65.35
58662;BME280;44432;49.786;22.760;2023-02-18T05:33:20;98818.30;;;7.20;65.62
58662;BME280;44432;49.786;22.760;2023-02-18T05:35:51;98825.58;;;7.18;65.15
58662;BME280;44432;49.786;22.760;2023-02-18T05:38:21;98826.73;;;7.17;65.50
58662;BME280;44432;49.786;22.760;2023-02-18T05:40:52;98834.38;;;7.15;64.58
58662;BME280;44432;49.786;22.760;2023-02-18T05:43:23;98825.98;;;7.15;63.50
58662;BME280;44432;49.786;22.760;2023-02-18T05:45:53;98825.90;;;7.13;63.26
58662;BME280;44432;49.786;22.760;2023-02-18T05:48:24;98830.98;;;7.12;62.86
58662;BME280;44432;49.786;22.760;2023-02-18T05:50:55;98829.11;;;7.10;62.90
58662;BME280;44432;49.786;22.760;2023-02-18T05:53:26;98830.90;;;7.10;61.75
58662;BME280;44432;49.786;22.760;2023-02-18T05:55:57;98831.75;;;7.09;61.44
58662;BME280;44432;49.786;22.760;2023-02-18T05:58:27;98833.01;;;7.08;61.30
58662;BME280;44432;49.786;22.760;2023-02-18T06:00:58;98833.40;;;7.08;61.08
58662;BME280;44432;49.786;22.760;2023-02-18T06:03:29;98839.90;;;7.08;60.52
58662;BME280;44432;49.786;22.760;2023-02-18T06:06:00;98839.66;;;7.07;59.98
58662;BME280;44432;49.786;22.760;2023-02-18T06:08:31;98853.87;;;7.07;58.98
58662;BME280;44432;49.786;22.760;2023-02-18T06:11:02;98850.20;;;7.07;58.37
58662;BME280;44432;49.786;22.760;2023-02-18T06:13:33;98849.30;;;7.06;57.45
58662;BME280;44432;49.786;22.760;2023-02-18T06:16:04;98853.31;;;7.06;57.38
58662;BME280;44432;49.786;22.760;2023-02-18T06:18:35;98852.06;;;7.06;57.09
58662;BME280;44432;49.786;22.760;2023-02-18T06:21:08;98849.88;;;7.07;56.97
58662;BME280;44432;49.786;22.760;2023-02-18T06:23:39;98846.92;;;7.06;56.53
58662;BME280;44432;49.786;22.760;2023-02-18T06:26:10;98847.33;;;7.09;56.36
58662;BME280;44432;49.786;22.760;2023-02-18T06:28:40;98847.48;;;7.09;56.14
58662;BME280;44432;49.786;22.760;2023-02-18T06:31:11;98849.84;;;7.10;55.98
58662;BME280;44432;49.786;22.760;2023-02-18T06:33:42;98851.38;;;7.10;55.26
58662;BME280;44432;49.786;22.760;2023-02-18T06:36:13;98845.77;;;7.10;54.60
58662;BME280;44432;49.786;22.760;2023-02-18T06:38:45;98839.86;;;7.11;55.60
58662;BME280;44432;49.786;22.760;2023-02-18T06:41:16;98842.00;;;7.11;55.05
58662;BME280;44432;49.786;22.760;2023-02-18T06:43:47;98837.27;;;7.09;55.37
58662;BME280;44432;49.786;22.760;2023-02-18T06:46:18;98838.94;;;7.11;55.11
58662;BME280;44432;49.786;22.760;2023-02-18T06:48:48;98842.70;;;7.12;54.83
58662;BME280;44432;49.786;22.760;2023-02-18T06:51:19;98839.83;;;7.14;54.54
58662;BME280;44432;49.786;22.760;2023-02-18T06:53:50;98838.61;;;7.14;53.91
58662;BME280;44432;49.786;22.760;2023-02-18T06:56:20;98837.29;;;7.21;53.46
58662;BME280;44432;49.786;22.760;2023-02-18T06:58:51;98850.52;;;7.27;53.47
58662;BME280;44432;49.786;22.760;2023-02-18T07:01:22;98845.79;;;7.33;52.43
58662;BME280;44432;49.786;22.760;2023-02-18T07:03:52;98845.30;;;7.41;51.59
58662;BME280;44432;49.786;22.760;2023-02-18T07:06:23;98833.17;;;7.48;51.73
58662;BME280;44432;49.786;22.760;2023-02-18T07:08:54;98830.38;;;7.54;51.30
58662;BME280;44432;49.786;22.760;2023-02-18T07:11:25;98830.86;;;7.60;51.28
58662;BME280;44432;49.786;22.760;2023-02-18T07:13:55;98831.17;;;7.67;50.99
58662;BME280;44432;49.786;22.760;2023-02-18T07:16:26;98836.22;;;7.72;50.99
58662;BME280;44432;49.786;22.760;2023-02-18T07:18:57;98831.28;;;7.78;51.49
58662;BME280;44432;49.786;22.760;2023-02-18T07:21:27;98833.58;;;7.81;51.68
58662;BME280;44432;49.786;22.760;2023-02-18T07:23:58;98831.67;;;7.85;51.78
58662;BME280;44432;49.786;22.760;2023-02-18T07:26:29;98834.00;;;7.90;51.21
58662;BME280;44432;49.786;22.760;2023-02-18T07:28:59;98836.58;;;7.96;50.73
58662;BME280;44432;49.786;22.760;2023-02-18T07:31:30;98839.96;;;8.02;50.46
58662;BME280;44432;49.786;22.760;2023-02-18T07:34:01;98832.14;;;8.07;51.27
58662;BME280;44432;49.786;22.760;2023-02-18T07:36:31;98845.48;;;8.13;50.94
58662;BME280;44432;49.786;22.760;2023-02-18T07:39:02;98837.20;;;8.18;50.90
58662;BME280;44432;49.786;22.760;2023-02-18T07:41:33;98844.76;;;8.24;51.23
58662;BME280;44432;49.786;22.760;2023-02-18T07:44:04;98837.38;;;8.29;50.94
58662;BME280;44432;49.786;22.760;2023-02-18T07:46:35;98838.52;;;8.33;50.42
58662;BME280;44432;49.786;22.760;2023-02-18T07:49:08;98845.19;;;8.37;49.83
58662;BME280;44432;49.786;22.760;2023-02-18T07:51:39;98850.84;;;8.40;49.30
58662;BME280;44432;49.786;22.760;2023-02-18T07:54:10;98842.37;;;8.43;48.28
58662;BME280;44432;49.786;22.760;2023-02-18T07:56:41;98840.82;;;8.45;48.52
58662;BME280;44432;49.786;22.760;2023-02-18T07:59:12;98862.58;;;8.49;47.26
58662;BME280;44432;49.786;22.760;2023-02-18T08:01:43;98857.67;;;8.52;46.02
58662;BME280;44432;49.786;22.760;2023-02-18T08:04:14;98859.65;;;8.54;46.27
58662;BME280;44432;49.786;22.760;2023-02-18T08:06:46;98846.16;;;8.56;46.28
58662;BME280;44432;49.786;22.760;2023-02-18T08:09:18;98840.52;;;8.61;47.46
58662;BME280;44432;49.786;22.760;2023-02-18T08:11:48;98845.55;;;8.66;46.79
58662;BME280;44432;49.786;22.760;2023-02-18T08:14:19;98851.11;;;8.70;47.04
58662;BME280;44432;49.786;22.760;2023-02-18T08:16:50;98847.23;;;8.75;47.48
58662;BME280;44432;49.786;22.760;2023-02-18T08:19:21;98845.83;;;8.81;47.68
58662;BME280;44432;49.786;22.760;2023-02-18T08:21:52;98847.02;;;8.85;47.73
58662;BME280;44432;49.786;22.760;2023-02-18T08:24:22;98850.98;;;8.88;47.41
58662;BME280;44432;49.786;22.760;2023-02-18T08:26:53;98860.70;;;8.93;46.61
58662;BME280;44432;49.786;22.760;2023-02-18T08:29:24;98864.29;;;8.96;46.31
58662;BME280;44432;49.786;22.760;2023-02-18T08:31:54;98866.48;;;8.96;44.85
58662;BME280;44432;49.786;22.760;2023-02-18T08:34:27;98870.12;;;8.97;45.48
58662;BME280;44432;49.786;22.760;2023-02-18T08:36:58;98870.21;;;9.00;45.66
58662;BME280;44432;49.786;22.760;2023-02-18T08:39:28;98880.64;;;9.03;45.31
58662;BME280;44432;49.786;22.760;2023-02-18T08:42:03;98887.77;;;9.03;44.73
58662;BME280;44432;49.786;22.760;2023-02-18T08:44:34;98883.40;;;9.05;44.30
58662;BME280;44432;49.786;22.760;2023-02-18T08:47:04;98887.48;;;9.04;43.54
58662;BME280;44432;49.786;22.760;2023-02-18T08:49:35;98885.52;;;9.02;43.89
58662;BME280;44432;49.786;22.760;2023-02-18T08:52:06;98894.75;;;9.02;43.11
58662;BME280;44432;49.786;22.760;2023-02-18T08:54:37;98897.62;;;9.03;43.68
58662;BME280;44432;49.786;22.760;2023-02-18T08:57:07;98883.39;;;9.06;44.17
58662;BME280;44432;49.786;22.760;2023-02-18T08:59:38;98882.39;;;9.09;43.31
58662;BME280;44432;49.786;22.760;2023-02-18T09:02:10;98892.90;;;9.13;43.34
58662;BME280;44432;49.786;22.760;2023-02-18T09:04:42;98894.51;;;9.16;42.82
58662;BME280;44432;49.786;22.760;2023-02-18T09:07:13;98891.22;;;9.16;42.65
58662;BME280;44432;49.786;22.760;2023-02-18T09:09:44;98892.67;;;9.17;42.10
58662;BME280;44432;49.786;22.760;2023-02-18T09:12:14;98892.93;;;9.22;43.35
58662;BME280;44432;49.786;22.760;2023-02-18T09:14:47;98886.77;;;9.26;42.80
58662;BME280;44432;49.786;22.760;2023-02-18T09:17:18;98883.77;;;9.27;41.83
58662;BME280;44432;49.786;22.760;2023-02-18T09:19:49;98889.98;;;9.25;41.48
58662;BME280;44432;49.786;22.760;2023-02-18T09:22:20;98889.47;;;9.24;40.84
58662;BME280;44432;49.786;22.760;2023-02-18T09:24:50;98896.64;;;9.24;41.24
58662;BME280;44432;49.786;22.760;2023-02-18T09:27:21;98901.70;;;9.23;40.33
58662;BME280;44432;49.786;22.760;2023-02-18T09:29:52;98890.45;;;9.22;41.01
58662;BME280;44432;49.786;22.760;2023-02-18T09:32:23;98888.17;;;9.25;41.68
58662;BME280;44432;49.786;22.760;2023-02-18T09:34:53;98884.63;;;9.27;41.03
58662;BME280;44432;49.786;22.760;2023-02-18T09:37:24;98883.23;;;9.30;41.43
58662;BME280;44432;49.786;22.760;2023-02-18T09:39:55;98895.81;;;9.33;40.66
58662;BME280;44432;49.786;22.760;2023-02-18T09:42:30;98906.08;;;9.32;40.03
58662;BME280;44432;49.786;22.760;2023-02-18T09:45:03;98884.64;;;9.31;40.20
58662;BME280;44432;49.786;22.760;2023-02-18T09:47:38;98891.77;;;9.31;40.22
58662;BME280;44432;49.786;22.760;2023-02-18T09:50:17;98894.97;;;9.31;39.35
58662;BME280;44432;49.786;22.760;2023-02-18T09:52:48;98887.27;;;9.31;39.63
58662;BME280;44432;49.786;22.760;2023-02-18T09:55:22;98886.86;;;9.31;39.28
58662;BME280;44432;49.786;22.760;2023-02-18T09:57:55;98891.35;;;9.33;39.21
58662;BME280;44432;49.786;22.760;2023-02-18T10:00:29;98878.48;;;9.35;38.58
58662;BME280;44432;49.786;22.760;2023-02-18T10:03:06;98886.80;;;9.38;39.38
58662;BME280;44432;49.786;22.760;2023-02-18T10:05:45;98896.04;;;9.42;38.56
58662;BME280;44432;49.786;22.760;2023-02-18T10:08:22;98884.10;;;9.46;39.00
58662;BME280;44432;49.786;22.760;2023-02-18T10:10:54;98882.89;;;9.49;37.84
58662;BME280;44432;49.786;22.760;2023-02-18T10:13:28;98877.36;;;9.51;38.10
58662;BME280;44432;49.786;22.760;2023-02-18T10:15:59;98887.36;;;9.53;36.93
58662;BME280;44432;49.786;22.760;2023-02-18T10:18:31;98882.00;;;9.55;37.94
58662;BME280;44432;49.786;22.760;2023-02-18T10:21:08;98877.59;;;9.59;38.36
58662;BME280;44432;49.786;22.760;2023-02-18T10:23:41;98884.61;;;9.62;38.23
58662;BME280;44432;49.786;22.760;2023-02-18T10:26:16;98887.34;;;9.65;37.32
58662;BME280;44432;49.786;22.760;2023-02-18T10:28:47;98881.86;;;9.67;36.82
58662;BME280;44432;49.786;22.760;2023-02-18T10:31:21;98870.98;;;9.66;36.07
58662;BME280;44432;49.786;22.760;2023-02-18T10:34:02;98855.02;;;9.68;37.37
58662;BME280;44432;49.786;22.760;2023-02-18T10:36:44;98853.77;;;9.74;37.25
58662;BME280;44432;49.786;22.760;2023-02-18T10:39:34;98854.38;;;9.79;37.25
58662;BME280;44432;49.786;22.760;2023-02-18T10:42:18;98865.99;;;9.86;36.52
58662;BME280;44432;49.786;22.760;2023-02-18T10:44:57;98868.55;;;9.90;36.35
58662;BME280;44432;49.786;22.760;2023-02-18T10:47:41;98852.19;;;9.95;36.44
58662;BME280;44432;49.786;22.760;2023-02-18T10:50:26;98847.05;;;10.01;36.10
58662;BME280;44432;49.786;22.760;2023-02-18T10:53:07;98858.16;;;10.06;35.04
58662;BME280;44432;49.786;22.760;2023-02-18T10:55:42;98850.35;;;10.07;34.38
58662;BME280;44432;49.786;22.760;2023-02-18T10:58:31;98852.23;;;10.10;34.72
58662;BME280;44432;49.786;22.760;2023-02-18T11:01:03;98842.10;;;10.16;35.61
58662;BME280;44432;49.786;22.760;2023-02-18T11:03:44;98845.73;;;10.24;35.48
58662;BME280;44432;49.786;22.760;2023-02-18T11:06:23;98838.37;;;10.30;35.43
58662;BME280;44432;49.786;22.760;2023-02-18T11:08:57;98822.91;;;10.32;35.48
58662;BME280;44432;49.786;22.760;2023-02-18T11:11:30;98837.79;;;10.37;35.02
58662;BME280;44432;49.786;22.760;2023-02-18T11:14:00;98826.13;;;10.43;34.74
58662;BME280;44432;49.786;22.760;2023-02-18T11:16:40;98820.02;;;10.47;34.66
58662;BME280;44432;49.786;22.760;2023-02-18T11:19:31;98829.95;;;10.51;33.52
58662;BME280;44432;49.786;22.760;2023-02-18T11:22:13;98817.02;;;10.53;33.56
58662;BME280;44432;49.786;22.760;2023-02-18T11:24:45;98822.77;;;10.57;34.40
58662;BME280;44432;49.786;22.760;2023-02-18T11:27:25;98816.45;;;10.60;33.80
58662;BME280;44432;49.786;22.760;2023-02-18T11:30:01;98817.14;;;10.60;33.56
58662;BME280;44432;49.786;22.760;2023-02-18T11:32:35;98820.89;;;10.58;34.17
58662;BME280;44432;49.786;22.760;2023-02-18T11:35:15;98817.98;;;10.58;33.45
58662;BME280;44432;49.786;22.760;2023-02-18T11:37:47;98809.50;;;10.56;34.16
58662;BME280;44432;49.786;22.760;2023-02-18T11:40:24;98801.80;;;10.58;34.76
58662;BME280;44432;49.786;22.760;2023-02-18T11:43:03;98802.73;;;10.62;34.29
58662;BME280;44432;49.786;22.760;2023-02-18T11:45:35;98795.09;;;10.62;34.23
58662;BME280;44432;49.786;22.760;2023-02-18T11:48:13;98790.56;;;10.61;34.02
58662;BME280;44432;49.786;22.760;2023-02-18T11:50:45;98790.98;;;10.63;34.12
58662;BME280;44432;49.786;22.760;2023-02-18T11:53:28;98789.23;;;10.63;33.44
58662;BME280;44432;49.786;22.760;2023-02-18T11:56:02;98794.20;;;10.59;33.06
58662;BME280;44432;49.786;22.760;2023-02-18T11:58:38;98803.86;;;10.56;33.44
58662;BME280;44432;49.786;22.760;2023-02-18T12:01:17;98794.66;;;10.54;33.43
58662;BME280;44432;49.786;22.760;2023-02-18T12:03:57;98799.70;;;10.57;33.57
58662;BME280;44432;49.786;22.760;2023-02-18T12:06:33;98798.91;;;10.61;33.36
58662;BME280;44432;49.786;22.760;2023-02-18T12:09:08;98803.95;;;10.68;33.16
58662;BME280;44432;49.786;22.760;2023-02-18T12:11:49;98806.84;;;10.70;33.63
58662;BME280;44432;49.786;22.760;2023-02-18T12:14:23;98803.70;;;10.73;33.68
58662;BME280;44432;49.786;22.760;2023-02-18T12:17:11;98794.64;;;10.73;33.33
58662;BME280;44432;49.786;22.760;2023-02-18T12:19:58;98787.27;;;10.74;33.23
58662;BME280;44432;49.786;22.760;2023-02-18T12:22:42;98789.67;;;10.71;33.14
58662;BME280;44432;49.786;22.760;2023-02-18T12:25:27;98786.34;;;10.67;33.45
58662;BME280;44432;49.786;22.760;2023-02-18T12:28:16;98788.95;;;10.66;33.22
58662;BME280;44432;49.786;22.760;2023-02-18T12:31:12;98787.94;;;10.65;33.88
58662;BME280;44432;49.786;22.760;2023-02-18T12:33:56;98786.59;;;10.71;34.00
58662;BME280;44432;49.786;22.760;2023-02-18T12:36:37;98787.21;;;10.70;33.10
58662;BME280;44432;49.786;22.760;2023-02-18T12:39:21;98779.45;;;10.64;33.13
58662;BME280;44432;49.786;22.760;2023-02-18T12:42:19;98770.90;;;10.58;34.05
58662;BME280;44432;49.786;22.760;2023-02-18T12:45:13;98771.63;;;10.49;33.91
58662;BME280;44432;49.786;22.760;2023-02-18T12:48:27;98776.34;;;10.39;33.82
58662;BME280;44432;49.786;22.760;2023-02-18T12:51:12;98780.80;;;10.27;34.09
58662;BME280;44432;49.786;22.760;2023-02-18T12:54:09;98779.64;;;10.23;34.88
58662;BME280;44432;49.786;22.760;2023-02-18T12:56:58;98775.56;;;10.19;34.53
58662;BME280;44432;49.786;22.760;2023-02-18T12:59:52;98772.30;;;10.13;34.53
58662;BME280;44432;49.786;22.760;2023-02-18T13:02:42;98772.96;;;10.11;34.23
58662;BME280;44432;49.786;22.760;2023-02-18T13:05:27;98780.09;;;10.13;34.45
58662;BME280;44432;49.786;22.760;2023-02-18T13:08:14;98783.20;;;10.17;34.31
58662;BME280;44432;49.786;22.760;2023-02-18T13:11:05;98781.12;;;10.18;34.59
58662;BME280;44432;49.786;22.760;2023-02-18T13:13:44;98775.19;;;10.19;33.96
58662;BME280;44432;49.786;22.760;2023-02-18T13:16:19;98767.73;;;10.19;34.44
58662;BME280;44432;49.786;22.760;2023-02-18T13:19:01;98774.59;;;10.19;34.65
58662;BME280;44432;49.786;22.760;2023-02-18T13:21:32;98772.24;;;10.18;35.10
58662;BME280;44432;49.786;22.760;2023-02-18T13:24:09;98770.80;;;10.16;35.07
58662;BME280;44432;49.786;22.760;2023-02-18T13:26:42;98763.60;;;10.14;35.24
58662;BME280;44432;49.786;22.760;2023-02-18T13:29:25;98765.55;;;10.11;35.76
58662;BME280;44432;49.786;22.760;2023-02-18T13:32:05;98775.71;;;10.06;35.19
58662;BME280;44432;49.786;22.760;2023-02-18T13:34:43;98768.17;;;9.98;35.72
58662;BME280;44432;49.786;22.760;2023-02-18T13:37:21;98775.17;;;9.92;36.19
58662;BME280;44432;49.786;22.760;2023-02-18T13:39:57;98782.45;;;9.91;36.51
58662;BME280;44432;49.786;22.760;2023-02-18T13:42:37;98779.16;;;9.92;36.48